Time;durP1;ratioP1;P1;durP2;ratioP2;P2;SDS_P1;SDS_P2;PMS_P1;PMS_P2;Temp;Humidity;BMP_temperature;BMP_pressure;BME280_temperature;BME280_humidity;BME280_pressure;Samples;Min_cycle;Max_cycle;Signal;HPM_P1;HPM_P2
2021/05/21 00:00:23;;;;;;;0.90;0.40;;;;;;;20.00;46.91;100354.66;5010516;28;20042;-71
2021/05/21 00:02:48;;;;;;;1.30;0.47;;;;;;;19.99;46.80;100350.31;5011747;28;20037;-72
2021/05/21 00:05:14;;;;;;;0.82;0.43;;;;;;;19.99;46.78;100345.81;5011108;28;20029;-71
2021/05/21 00:07:39;;;;;;;1.15;0.50;;;;;;;19.99;46.86;100334.31;5008369;28;20535;-72
2021/05/21 00:10:05;;;;;;;0.47;0.30;;;;;;;19.99;46.34;100336.97;5008968;28;20069;-72
2021/05/21 00:12:31;;;;;;;0.68;0.40;;;;;;;19.98;46.42;100324.63;5013091;28;20037;-71
2021/05/21 00:14:56;;;;;;;3.28;0.50;;;;;;;19.97;46.89;100320.28;5012343;28;20038;-72
2021/05/21 00:17:21;;;;;;;0.93;0.40;;;;;;;19.97;46.66;100321.13;5000022;28;20095;-72
2021/05/21 00:19:47;;;;;;;0.82;0.40;;;;;;;19.98;46.95;100311.28;5000203;28;20029;-72
2021/05/21 00:22:12;;;;;;;1.08;0.63;;;;;;;19.97;46.87;100306.94;5002349;28;20037;-72
2021/05/21 00:24:37;;;;;;;1.40;0.43;;;;;;;19.97;46.25;100317.63;5004860;28;20393;-71
2021/05/21 00:27:04;;;;;;;0.50;0.30;;;;;;;19.96;47.14;100305.22;4993393;28;20026;-71
2021/05/21 00:29:29;;;;;;;1.08;0.30;;;;;;;19.96;46.92;100303.41;4995597;28;20125;-72
2021/05/21 00:31:55;;;;;;;1.13;0.50;;;;;;;19.96;46.48;100295.41;5001054;28;20156;-72
2021/05/21 00:34:20;;;;;;;0.75;0.50;;;;;;;19.95;46.54;100285.72;5000546;28;20095;-72
2021/05/21 00:36:45;;;;;;;0.68;0.30;;;;;;;19.94;46.48;100286.72;5002317;28;20439;-71
2021/05/21 00:39:11;;;;;;;1.00;0.45;;;;;;;19.93;46.39;100279.72;5002889;28;20030;-72
2021/05/21 00:41:36;;;;;;;0.77;0.45;;;;;;;19.95;46.24;100271.56;5000332;28;20058;-71
2021/05/21 00:44:01;;;;;;;0.85;0.40;;;;;;;19.94;47.05;100267.22;5007088;28;20483;-71
2021/05/21 00:46:27;;;;;;;1.02;0.50;;;;;;;19.95;46.35;100267.06;5006447;28;20037;-72
2021/05/21 00:48:52;;;;;;;0.88;0.30;;;;;;;19.94;46.96;100261.88;5000964;28;20169;-72
2021/05/21 00:51:17;;;;;;;0.35;0.30;;;;;;;19.94;47.06;100260.06;5001034;28;20121;-71
2021/05/21 00:53:43;;;;;;;1.38;0.40;;;;;;;19.94;46.77;100252.03;5011474;28;20963;-72
2021/05/21 00:56:08;;;;;;;1.17;0.57;;;;;;;19.93;46.55;100245.03;4990787;28;20105;-72
2021/05/21 00:58:35;;;;;;;0.93;0.45;;;;;;;19.94;46.99;100240.53;4986532;28;20083;-71
2021/05/21 01:01:01;;;;;;;0.75;0.40;;;;;;;19.92;46.77;100237.16;5001080;28;20041;-71
2021/05/21 01:03:26;;;;;;;1.17;0.50;;;;;;;19.91;47.38;100231.00;4992795;28;20032;-73
2021/05/21 01:05:51;;;;;;;0.90;0.50;;;;;;;19.92;46.91;100240.66;5003752;28;20022;-71
2021/05/21 01:08:18;;;;;;;1.40;0.47;;;;;;;19.93;47.06;100228.16;5010479;28;20429;-72
2021/05/21 01:10:45;;;;;;;1.08;0.50;;;;;;;19.92;46.56;100223.81;5005303;28;20025;-72
2021/05/21 01:13:10;;;;;;;1.02;0.40;;;;;;;19.91;46.92;100223.00;5003003;28;20132;-72
2021/05/21 01:15:37;;;;;;;0.52;0.35;;;;;;;19.92;47.29;100218.50;5005760;28;20521;-71
2021/05/21 01:18:04;;;;;;;1.23;0.52;;;;;;;19.91;46.96;100209.66;5010488;28;20091;-71
2021/05/21 01:20:30;;;;;;;1.95;0.60;;;;;;;19.91;46.82;100204.31;5004781;28;20912;-72
2021/05/21 01:22:56;;;;;;;0.98;0.40;;;;;;;19.88;46.61;100191.28;5010595;28;20088;-71
2021/05/21 01:25:21;;;;;;;0.77;0.43;;;;;;;19.90;46.87;100197.31;5007350;28;20109;-71
2021/05/21 01:27:47;;;;;;;0.82;0.43;;;;;;;19.90;46.63;100189.31;5005074;28;20125;-71
2021/05/21 01:30:12;;;;;;;0.90;0.40;;;;;;;19.89;46.95;100177.78;5006595;28;20049;-71
2021/05/21 01:32:38;;;;;;;3.15;0.80;;;;;;;19.89;46.84;100174.28;4999047;28;20053;-70
2021/05/21 01:35:05;;;;;;;0.90;0.40;;;;;;;19.89;47.18;100175.13;5010027;28;20077;-71
2021/05/21 01:37:30;;;;;;;1.25;0.50;;;;;;;19.89;46.81;100163.59;5010673;28;20129;-71
2021/05/21 01:39:56;;;;;;;0.90;0.40;;;;;;;19.88;46.68;100162.78;5009945;28;20125;-71
2021/05/21 01:42:21;;;;;;;0.88;0.40;;;;;;;19.89;46.99;100160.94;4991876;28;20056;-72
2021/05/21 01:44:50;;;;;;;1.30;0.50;;;;;;;19.88;46.60;100144.09;4991177;28;20030;-72
2021/05/21 01:47:15;;;;;;;1.42;0.60;;;;;;;19.89;47.30;100142.28;4991888;28;20043;-72
2021/05/21 01:49:40;;;;;;;0.75;0.40;;;;;;;19.88;46.87;100133.44;4991631;28;20030;-70
2021/05/21 01:52:06;;;;;;;1.10;0.60;;;;;;;19.89;46.62;100134.28;4991777;28;20050;-72
2021/05/21 01:54:31;;;;;;;0.75;0.50;;;;;;;19.88;46.69;100124.59;4991128;28;20034;-71
2021/05/21 01:56:57;;;;;;;0.60;0.35;;;;;;;19.88;46.71;100125.44;4990319;28;20034;-71
2021/05/21 01:59:23;;;;;;;0.80;0.40;;;;;;;19.88;47.09;100120.09;4988587;28;20035;-72
2021/05/21 02:01:49;;;;;;;0.73;0.45;;;;;;;19.88;47.04;100121.94;4989164;28;20030;-72
2021/05/21 02:04:14;;;;;;;0.93;0.50;;;;;;;19.87;46.65;100107.75;4991406;28;20081;-71
2021/05/21 02:06:39;;;;;;;0.45;0.35;;;;;;;19.87;47.11;100104.25;4990769;28;20037;-71
2021/05/21 02:09:08;;;;;;;1.23;0.63;;;;;;;19.87;46.55;100101.59;4992121;28;20033;-71
2021/05/21 02:11:33;;;;;;;2.30;0.70;;;;;;;19.87;46.82;100089.09;4986147;28;20049;-71
2021/05/21 02:13:59;;;;;;;0.80;0.40;;;;;;;19.87;47.26;100082.94;4983886;28;20804;-71
2021/05/21 02:16:24;;;;;;;1.67;0.52;;;;;;;19.88;47.05;100087.25;4990744;28;20416;-72
2021/05/21 02:18:50;;;;;;;1.08;0.50;;;;;;;19.87;47.24;100075.75;4983648;28;20034;-71
2021/05/21 02:21:15;;;;;;;0.60;0.40;;;;;;;19.87;46.60;100081.09;4983752;28;20045;-71
2021/05/21 02:23:41;;;;;;;0.65;0.30;;;;;;;19.86;46.54;100067.88;4986642;28;20046;-71
2021/05/21 02:26:06;;;;;;;0.68;0.50;;;;;;;19.86;46.67;100067.88;4986358;28;20030;-71
2021/05/21 02:28:31;;;;;;;1.23;0.60;;;;;;;19.87;46.43;100064.25;4978349;28;20030;-72
2021/05/21 02:30:57;;;;;;;1.30;0.52;;;;;;;19.84;46.73;100048.53;4984306;28;20100;-71
2021/05/21 02:33:22;;;;;;;0.65;0.40;;;;;;;19.86;46.53;100052.75;4972923;28;20520;-71
2021/05/21 02:35:47;;;;;;;0.80;0.40;;;;;;;19.85;47.27;100043.06;4989594;28;20026;-72
2021/05/21 02:38:12;;;;;;;2.30;0.47;;;;;;;19.86;47.06;100046.56;4971831;28;20026;-71
2021/05/21 02:40:38;;;;;;;1.33;0.60;;;;;;;19.86;46.52;100036.75;4995702;28;20041;-72
2021/05/21 02:43:03;;;;;;;1.67;0.85;;;;;;;19.87;47.03;100035.75;5004907;28;20593;-72
2021/05/21 02:45:28;;;;;;;0.85;0.50;;;;;;;19.86;46.37;100027.88;5011329;28;20384;-71
2021/05/21 02:47:54;;;;;;;0.95;0.50;;;;;;;19.86;46.92;100025.22;5011257;28;20033;-71
2021/05/21 02:50:19;;;;;;;1.98;0.70;;;;;;;19.86;46.40;100022.56;5012658;28;20061;-72
2021/05/21 02:52:44;;;;;;;1.10;0.50;;;;;;;19.86;47.03;100022.56;5013650;28;20068;-71
2021/05/21 02:55:10;;;;;;;0.50;0.40;;;;;;;19.85;46.70;100015.56;5011403;28;20053;-72
2021/05/21 02:57:36;;;;;;;1.70;0.60;;;;;;;19.85;47.05;100012.88;5011978;28;20435;-71
2021/05/21 03:00:15;;;;;;;1.05;0.45;;;;;;;19.84;46.96;100012.06;5007548;28;20030;-71
2021/05/21 03:02:40;;;;;;;;;;;;;;;19.85;46.67;100002.22;5012792;28;20107;-72
2021/05/21 03:05:06;;;;;;;0.90;0.47;;;;;;;19.84;46.90;100005.88;5013868;28;20595;-71
2021/05/21 03:07:31;;;;;;;1.13;0.50;;;;;;;19.84;47.06;100001.38;5013252;28;20026;-71
2021/05/21 03:09:57;;;;;;;1.38;0.50;;;;;;;19.84;46.97;99997.88;5013153;28;20373;-72
2021/05/21 03:12:22;;;;;;;1.08;0.50;;;;;;;19.83;46.46;99999.72;5009979;28;20701;-72
2021/05/21 03:14:47;;;;;;;1.13;0.63;;;;;;;19.83;47.04;99990.88;5007778;28;20046;-72
2021/05/21 03:17:13;;;;;;;0.98;0.65;;;;;;;19.82;46.45;99981.19;5013603;28;20435;-72
2021/05/21 03:19:39;;;;;;;2.03;0.63;;;;;;;19.82;46.89;99984.69;5012730;28;20098;-71
2021/05/21 03:22:04;;;;;;;1.13;0.52;;;;;;;19.82;46.62;99976.69;5013838;28;20033;-71
2021/05/21 03:24:29;;;;;;;1.80;0.68;;;;;;;19.83;46.99;99966.88;5003177;28;20022;-71
2021/05/21 03:26:55;;;;;;;1.48;0.57;;;;;;;19.82;46.45;99966.00;5010760;28;20026;-72
2021/05/21 03:29:20;;;;;;;0.90;0.50;;;;;;;19.82;46.75;99962.50;5000158;28;20596;-72
2021/05/21 03:31:46;;;;;;;0.65;0.45;;;;;;;19.81;46.38;99960.84;5010497;28;20049;-71
2021/05/21 03:34:12;;;;;;;1.30;0.60;;;;;;;19.79;46.44;99952.97;5011842;28;20030;-71
2021/05/21 03:36:37;;;;;;;1.33;0.60;;;;;;;19.81;46.88;99939.50;5012439;28;20037;-71
2021/05/21 03:39:05;;;;;;;1.77;0.70;;;;;;;19.80;46.64;99943.19;5011931;28;20484;-72
2021/05/21 03:41:31;;;;;;;0.65;0.47;;;;;;;19.81;46.67;99948.34;5011439;28;20049;-71
2021/05/21 03:43:56;;;;;;;0.68;0.40;;;;;;;19.80;46.40;99935.19;5013572;28;20084;-72
2021/05/21 03:46:21;;;;;;;1.45;0.52;;;;;;;19.81;46.94;99923.50;5013335;28;20030;-71
2021/05/21 03:48:47;;;;;;;0.75;0.50;;;;;;;19.81;46.59;99928.84;5013356;28;20034;-72
2021/05/21 03:51:13;;;;;;;1.20;0.50;;;;;;;19.80;46.48;99922.69;5006975;28;20027;-72
2021/05/21 03:53:38;;;;;;;1.42;0.50;;;;;;;19.80;46.49;99920.00;5008518;28;20037;-71
2021/05/21 03:56:04;;;;;;;0.98;0.40;;;;;;;19.79;46.93;99915.66;5005382;28;20031;-72
2021/05/21 03:58:30;;;;;;;0.88;0.55;;;;;;;19.80;46.50;99911.19;5005870;28;20052;-71
2021/05/21 04:00:56;;;;;;;0.95;0.55;;;;;;;19.79;47.08;99904.97;5004504;28;20110;-71
2021/05/21 04:03:21;;;;;;;2.15;0.65;;;;;;;19.79;46.53;99909.47;5012164;28;20057;-72
2021/05/21 04:05:46;;;;;;;1.42;0.52;;;;;;;19.80;46.52;99908.50;5013108;28;20022;-72
2021/05/21 04:08:11;;;;;;;0.70;0.50;;;;;;;19.79;46.56;99896.16;4998207;28;20061;-71
2021/05/21 04:10:37;;;;;;;0.82;0.50;;;;;;;19.79;46.90;99899.66;5001367;28;20022;-70
2021/05/21 04:13:03;;;;;;;1.70;0.65;;;;;;;19.80;46.39;99896.00;5011892;28;20021;-71
2021/05/21 04:15:28;;;;;;;1.33;0.57;;;;;;;19.78;47.09;99892.66;5009069;28;20569;-71
2021/05/21 04:17:53;;;;;;;0.90;0.50;;;;;;;19.78;46.78;99889.97;4995533;28;20072;-71
2021/05/21 04:20:19;;;;;;;1.33;0.70;;;;;;;19.79;46.87;99880.16;5012084;28;20034;-72
2021/05/21 04:22:44;;;;;;;1.50;0.65;;;;;;;19.79;47.02;99872.97;4993973;28;20034;-71
2021/05/21 04:25:10;;;;;;;0.88;0.55;;;;;;;19.79;46.39;99869.47;5001308;28;20030;-71
2021/05/21 04:27:35;;;;;;;1.88;0.65;;;;;;;19.81;46.39;99870.19;5010371;28;20022;-71
2021/05/21 04:30:01;;;;;;;1.45;0.60;;;;;;;19.80;47.06;99869.34;5009746;28;20389;-72
2021/05/21 04:32:26;;;;;;;1.02;0.57;;;;;;;19.81;46.35;99864.84;5007225;28;20033;-71
2021/05/21 04:34:51;;;;;;;2.72;0.55;;;;;;;19.83;46.63;99868.22;5010778;28;20030;-72
2021/05/21 04:37:17;;;;;;;1.38;0.60;;;;;;;19.82;46.40;99870.03;5008304;28;21876;-71
2021/05/21 04:39:43;;;;;;;1.23;0.57;;;;;;;19.84;46.73;99864.56;5011351;28;20172;-72
2021/05/21 04:42:08;;;;;;;1.27;0.60;;;;;;;19.83;46.41;99861.06;5011391;28;20100;-74
2021/05/21 04:44:33;;;;;;;2.00;0.50;;;;;;;19.84;46.93;99862.72;5010630;28;20064;-73
2021/05/21 04:46:59;;;;;;;0.95;0.50;;;;;;;19.84;47.17;99854.72;5011439;28;20026;-71
2021/05/21 04:49:34;;;;;;;1.00;0.50;;;;;;;19.83;46.68;99854.88;5007764;28;20036;-71
2021/05/21 04:52:00;;;;;;;0.80;0.30;;;;;;;19.86;46.70;99854.56;5002178;28;20025;-71
2021/05/21 04:54:25;;;;;;;0.90;0.60;;;;;;;19.85;46.43;99842.22;5011569;28;20180;-71
2021/05/21 04:56:51;;;;;;;1.23;0.57;;;;;;;19.85;46.61;99843.06;5010451;28;20025;-73
2021/05/21 04:59:16;;;;;;;1.48;0.50;;;;;;;19.85;47.01;99827.06;5002870;28;20101;-71
2021/05/21 05:01:41;;;;;;;1.73;0.52;;;;;;;19.86;47.26;99836.75;5010989;28;20033;-71
2021/05/21 05:04:06;;;;;;;1.38;0.55;;;;;;;19.86;46.89;99839.41;5001869;28;20080;-71
2021/05/21 05:06:32;;;;;;;1.42;0.70;;;;;;;19.88;46.91;99834.75;4998540;28;20029;-71
2021/05/21 05:08:57;;;;;;;0.98;0.50;;;;;;;19.87;47.05;99829.59;5010964;28;20037;-71
2021/05/21 05:11:22;;;;;;;1.17;0.38;;;;;;;19.87;46.79;99821.59;5009882;28;20057;-71
2021/05/21 05:13:48;;;;;;;1.15;0.50;;;;;;;19.87;47.00;99810.91;5011469;28;20072;-71
2021/05/21 05:16:13;;;;;;;0.95;0.45;;;;;;;19.88;46.92;99810.75;5005889;28;20030;-71
2021/05/21 05:18:38;;;;;;;1.15;0.52;;;;;;;19.89;47.14;99804.41;5003807;28;20041;-72
2021/05/21 05:21:05;;;;;;;1.45;0.50;;;;;;;19.91;47.02;99800.78;5002343;28;20382;-71
2021/05/21 05:23:31;;;;;;;0.35;0.30;;;;;;;19.89;47.01;99800.91;5001184;28;20029;-73
2021/05/21 05:25:56;;;;;;;1.88;0.70;;;;;;;19.89;46.62;99790.25;5003060;28;20045;-73
2021/05/21 05:28:21;;;;;;;0.52;0.35;;;;;;;19.92;47.09;99794.44;4987428;28;20035;-73
2021/05/21 05:30:48;;;;;;;0.40;0.40;;;;;;;19.93;47.00;99796.13;5004061;28;20034;-73
2021/05/21 05:33:13;;;;;;;1.75;0.60;;;;;;;19.92;47.21;99789.94;5002957;28;20030;-74
2021/05/21 05:35:38;;;;;;;1.30;0.60;;;;;;;19.93;46.84;99785.44;4997801;28;20039;-74
2021/05/21 05:38:04;;;;;;;1.30;0.70;;;;;;;19.92;46.72;99781.94;5003854;28;20099;-74
2021/05/21 05:40:31;;;;;;;1.33;0.63;;;;;;;19.93;47.06;99778.31;5004793;28;20144;-73
2021/05/21 05:42:56;;;;;;;1.45;0.50;;;;;;;19.93;47.08;99775.63;5004306;28;20057;-74
2021/05/21 05:45:22;;;;;;;1.42;0.65;;;;;;;19.94;46.88;99774.63;5005116;28;20038;-73
2021/05/21 05:47:47;;;;;;;2.08;0.70;;;;;;;19.92;46.88;99763.28;5001383;28;20034;-74
2021/05/21 05:50:12;;;;;;;3.65;0.90;;;;;;;19.93;47.09;99762.31;5001744;28;20128;-73
2021/05/21 05:52:38;;;;;;;1.65;0.55;;;;;;;19.95;46.92;99759.47;4986209;28;20121;-74
2021/05/21 05:55:03;;;;;;;2.85;0.57;;;;;;;19.94;47.25;99763.97;5008166;28;20506;-74
2021/05/21 05:57:29;;;;;;;4.50;1.00;;;;;;;19.95;47.44;99756.81;5007407;28;20053;-73
2021/05/21 05:59:54;;;;;;;4.97;0.90;;;;;;;19.94;46.99;99755.13;5003370;28;20034;-74
2021/05/21 06:02:19;;;;;;;2.53;0.60;;;;;;;19.93;47.17;99751.63;5005813;28;20492;-72
2021/05/21 06:04:45;;;;;;;3.10;0.70;;;;;;;19.94;46.95;99752.47;5000543;28;20037;-73
2021/05/21 06:07:10;;;;;;;2.97;0.75;;;;;;;19.93;47.60;99751.63;4998845;28;20065;-73
2021/05/21 06:09:35;;;;;;;2.50;0.65;;;;;;;19.94;47.41;99752.47;4999050;28;20021;-73
2021/05/21 06:12:00;;;;;;;2.17;0.73;;;;;;;19.94;47.50;99752.47;5011504;28;20092;-73
2021/05/21 06:14:26;;;;;;;1.52;0.52;;;;;;;19.93;47.27;99748.09;5013674;28;20026;-73
2021/05/21 06:16:51;;;;;;;3.33;0.65;;;;;;;19.92;47.46;99735.78;5015008;28;20526;-73
2021/05/21 06:19:16;;;;;;;2.33;0.93;;;;;;;19.92;46.87;99736.59;5015062;28;20029;-73
2021/05/21 06:21:42;;;;;;;1.20;0.60;;;;;;;19.91;47.09;99729.59;5015696;28;20072;-73
2021/05/21 06:24:08;;;;;;;2.33;0.70;;;;;;;19.94;47.53;99723.13;5014756;28;20053;-73
2021/05/21 06:26:38;;;;;;;3.78;0.80;;;;;;;19.93;47.21;99724.09;5013867;28;20117;-73
2021/05/21 06:29:03;;;;;;;3.53;0.60;;;;;;;19.92;47.17;99720.59;4998281;28;20038;-75
2021/05/21 06:31:29;;;;;;;2.13;1.35;;;;;;;19.91;47.24;99718.09;5015463;28;20077;-75
2021/05/21 06:33:54;;;;;;;2.15;0.77;;;;;;;19.92;47.13;99722.44;5016012;28;20022;-74
2021/05/21 06:36:20;;;;;;;3.00;0.70;;;;;;;19.91;46.90;99716.28;5014966;28;20792;-74
2021/05/21 06:38:45;;;;;;;3.00;0.77;;;;;;;19.92;46.92;99717.09;5014677;28;20030;-73
2021/05/21 06:41:10;;;;;;;2.42;0.60;;;;;;;19.91;47.22;99713.59;5013841;28;20081;-73
2021/05/21 06:43:36;;;;;;;1.98;0.75;;;;;;;19.91;46.85;99710.94;5013444;28;20070;-75
2021/05/21 06:46:02;;;;;;;3.33;0.80;;;;;;;19.91;47.40;99718.94;5014297;28;20026;-74
2021/05/21 06:48:34;;;;;;;2.15;0.57;;;;;;;19.91;47.53;99715.44;5006991;28;20073;-74
2021/05/21 06:51:07;;;;;;;1.67;0.60;;;;;;;19.88;47.20;99714.75;5001137;28;20022;-72
2021/05/21 06:53:33;;;;;;;1.55;0.68;;;;;;;19.91;47.50;99715.44;5003545;28;20088;-74
2021/05/21 06:55:58;;;;;;;1.60;0.57;;;;;;;19.91;47.49;99716.28;5011210;28;20014;-75
2021/05/21 06:58:26;;;;;;;1.70;0.70;;;;;;;19.92;47.22;99719.78;5014413;28;20067;-74
2021/05/21 07:00:52;;;;;;;2.80;0.70;;;;;;;19.92;46.98;99719.78;5013629;28;20428;-73
2021/05/21 07:03:18;;;;;;;2.85;1.00;;;;;;;19.93;46.91;99708.09;5012033;28;20459;-74
2021/05/21 07:05:43;;;;;;;2.58;1.05;;;;;;;19.92;46.80;99709.94;4996209;28;20121;-73
2021/05/21 07:08:12;;;;;;;2.00;0.68;;;;;;;19.92;47.33;99701.94;4996761;28;20663;-73
2021/05/21 07:10:38;;;;;;;1.42;0.60;;;;;;;19.92;46.87;99701.94;5013898;28;20030;-73
2021/05/21 07:13:12;;;;;;;2.03;0.70;;;;;;;19.93;47.55;99702.78;4993481;28;20026;-73
2021/05/21 07:15:37;;;;;;;2.08;0.60;;;;;;;19.93;47.08;99700.97;5005921;28;20030;-74
2021/05/21 07:18:03;;;;;;;2.90;0.93;;;;;;;19.93;47.30;99692.09;5008474;28;20026;-74
2021/05/21 07:20:29;;;;;;;1.65;0.60;;;;;;;19.93;47.15;99684.09;5010171;28;20022;-74
2021/05/21 07:22:54;;;;;;;1.70;0.70;;;;;;;19.94;47.32;99683.13;5013617;28;20087;-73
2021/05/21 07:25:19;;;;;;;2.45;0.77;;;;;;;19.95;46.92;99684.78;5012458;28;20068;-74
2021/05/21 07:27:45;;;;;;;2.08;0.60;;;;;;;19.93;47.07;99679.63;5013492;28;20018;-74
2021/05/21 07:30:10;;;;;;;2.10;0.65;;;;;;;19.94;46.96;99673.28;5013752;28;20075;-74
2021/05/21 07:32:36;;;;;;;3.90;0.60;;;;;;;19.95;47.19;99674.13;5013802;28;20034;-73
2021/05/21 07:35:02;;;;;;;3.47;0.60;;;;;;;19.95;47.50;99674.13;5013796;28;20053;-74
2021/05/21 07:37:28;;;;;;;4.53;0.82;;;;;;;19.96;47.25;99675.78;5012549;28;20033;-73
2021/05/21 07:39:53;;;;;;;2.10;0.73;;;;;;;19.96;46.99;99673.13;5008877;28;20104;-73
2021/05/21 07:42:18;;;;;;;2.92;1.00;;;;;;;19.97;47.45;99669.50;5013566;28;20066;-73
2021/05/21 07:44:44;;;;;;;2.60;0.60;;;;;;;19.96;46.93;99660.63;4995827;28;20105;-73
2021/05/21 07:47:09;;;;;;;1.48;0.50;;;;;;;19.95;47.37;99660.78;5012787;28;20030;-73
2021/05/21 07:49:34;;;;;;;2.17;0.52;;;;;;;19.95;47.47;99660.78;5003406;28;20038;-74
2021/05/21 07:52:00;;;;;;;1.33;0.50;;;;;;;19.95;47.39;99660.78;4657442;28;10000359;-73
2021/05/21 07:54:25;;;;;;;1.70;0.90;;;;;;;19.95;47.12;99650.13;4981647;28;20022;-74
2021/05/21 07:56:54;;;;;;;1.00;0.57;;;;;;;19.96;47.31;99660.63;4989733;28;20022;-74
2021/05/21 07:59:19;;;;;;;1.48;0.43;;;;;;;19.97;46.97;99664.16;4997447;28;20034;-74
2021/05/21 08:01:48;;;;;;;2.42;0.65;;;;;;;19.96;47.25;99665.13;5004826;28;20037;-74
2021/05/21 08:04:14;;;;;;;;;;;;;;;19.96;47.52;99667.78;5008334;28;20470;-74
2021/05/21 08:06:41;;;;;;;1.13;0.50;;;;;;;19.95;46.95;99687.47;4990096;28;19914;-75
2021/05/21 08:09:07;;;;;;;0.95;0.40;;;;;;;19.95;47.22;99692.78;5005491;28;20468;-73
2021/05/21 08:11:33;;;;;;;1.08;0.32;;;;;;;19.95;47.54;99706.97;5011966;28;20049;-73
2021/05/21 08:13:59;;;;;;;2.08;0.60;;;;;;;19.95;47.49;99708.81;4652705;23;10001562;-76
2021/05/21 08:16:26;;;;;;;1.98;0.70;;;;;;;19.94;47.38;99709.81;4914572;29;20130;-75
2021/05/21 08:18:51;;;;;;;2.75;0.70;;;;;;;19.94;47.25;99718.63;4921085;29;20048;-76
2021/05/21 08:21:16;;;;;;;2.90;0.88;;;;;;;19.93;47.67;99716.97;4930155;29;20110;-76
2021/05/21 08:23:42;;;;;;;4.78;1.33;;;;;;;19.95;47.38;99720.28;4933274;29;20830;-76
2021/05/21 08:26:07;;;;;;;12.13;2.20;;;;;;;19.95;48.17;99725.63;4922108;29;20034;-78
2021/05/21 08:28:36;;;;;;;8.90;2.42;;;;;;;19.94;48.32;99721.31;4930721;29;20090;-76
2021/05/21 08:31:01;;;;;;;14.67;2.40;;;;;;;19.96;48.57;99708.63;4927080;29;20024;-75
2021/05/21 08:33:26;;;;;;;7.72;1.95;;;;;;;19.96;48.44;99710.47;4917487;29;20449;-76
2021/05/21 08:35:52;;;;;;;8.98;2.47;;;;;;;19.95;48.36;99711.47;4917861;29;20399;-76
2021/05/21 08:38:17;;;;;;;12.40;2.58;;;;;;;19.95;48.93;99711.47;4925120;29;20118;-76
2021/05/21 08:40:42;;;;;;;12.70;2.30;;;;;;;19.94;49.15;99705.31;4924160;29;20100;-77
2021/05/21 08:43:10;;;;;;;10.98;3.40;;;;;;;19.94;49.22;99701.81;4905531;29;20034;-77
2021/05/21 08:45:36;;;;;;;11.23;1.90;;;;;;;19.93;49.44;99708.09;4910834;29;20058;-76
2021/05/21 08:48:02;;;;;;;8.00;1.85;;;;;;;19.91;49.28;99707.44;4925011;29;20036;-75
2021/05/21 08:50:28;;;;;;;4.32;1.20;;;;;;;19.87;48.21;99702.41;4913205;29;20294;-76
2021/05/21 08:52:54;;;;;;;7.65;1.60;;;;;;;19.84;47.88;99705.41;4915433;29;20037;-76
2021/05/21 08:55:19;;;;;;;4.88;1.27;;;;;;;19.82;47.42;99695.88;4914354;29;20035;-76
2021/05/21 08:57:45;;;;;;;6.85;1.23;;;;;;;19.79;47.03;99690.84;4926342;29;20055;-75
2021/05/21 09:00:11;;;;;;;5.90;1.23;;;;;;;19.78;47.34;99697.19;4920816;29;20134;-76
2021/05/21 09:02:38;;;;;;;5.60;1.80;;;;;;;19.73;46.92;99688.81;4908782;29;20032;-77
2021/05/21 09:05:06;;;;;;;8.52;1.70;;;;;;;19.59;47.48;99696.34;4923279;29;20108;-76
2021/05/21 09:07:33;;;;;;;7.88;1.00;;;;;;;19.51;47.25;99693.59;4898288;29;20027;-86
2021/05/21 09:10:06;;;;;;;4.45;1.52;;;;;;;19.49;47.33;99690.28;4912920;29;20047;-86
2021/05/21 09:12:48;;;;;;;3.95;1.20;;;;;;;19.48;47.98;99680.56;4931128;29;20047;-85
2021/05/21 09:15:16;;;;;;;5.25;1.30;;;;;;;19.49;47.99;99682.28;4921892;29;20045;-89
2021/05/21 09:17:53;;;;;;;7.57;1.20;;;;;;;19.51;48.15;99679.44;4921559;29;20036;-85
2021/05/21 09:20:22;;;;;;;6.60;1.00;;;;;;;19.51;47.77;99666.94;4925864;29;20031;-83
2021/05/21 09:23:14;;;;;;;2.85;0.75;;;;;;;19.53;48.03;99683.63;4926820;29;20051;-83
2021/05/21 09:25:46;;;;;;;7.20;1.50;;;;;;;19.55;47.83;99668.31;4921277;29;20051;-85
2021/05/21 09:28:31;;;;;;;7.13;2.08;;;;;;;19.59;47.89;99679.53;4924660;29;20026;-83
2021/05/21 09:31:18;;;;;;;4.28;1.10;;;;;;;19.60;48.31;99671.34;4928942;29;20119;-85
2021/05/21 09:33:45;;;;;;;6.03;1.27;;;;;;;19.60;48.90;99666.03;4925350;29;20031;-86
2021/05/21 09:36:11;;;;;;;6.00;1.60;;;;;;;19.61;48.78;99664.19;4928695;29;20159;-86
2021/05/21 09:38:50;;;;;;;6.50;1.55;;;;;;;19.61;48.82;99667.69;4931063;29;20281;-86
2021/05/21 09:41:15;;;;;;;4.93;1.17;;;;;;;19.62;48.38;99650.72;4928969;29;20513;-84
2021/05/21 09:43:40;;;;;;;3.17;1.00;;;;;;;19.62;48.07;99656.06;4930867;29;20141;-85
2021/05/21 09:46:10;;;;;;;4.07;0.95;;;;;;;19.65;48.50;99654.91;4931607;29;20023;-85
2021/05/21 09:48:36;;;;;;;7.72;1.55;;;;;;;19.64;48.11;99643.44;4914148;29;20027;-84
2021/05/21 09:51:02;;;;;;;8.93;1.30;;;;;;;19.67;47.88;99646.78;4930884;29;20020;-85
2021/05/21 09:53:27;;;;;;;5.15;1.20;;;;;;;19.68;48.32;99643.13;4913683;29;20287;-84
2021/05/21 09:55:57;;;;;;;5.35;1.10;;;;;;;19.68;47.60;99632.47;4930559;29;20032;-85
2021/05/21 09:58:26;;;;;;;6.50;1.55;;;;;;;19.69;47.97;99628.78;4929415;29;20023;-81
2021/05/21 10:01:07;;;;;;;5.30;1.20;;;;;;;19.69;47.61;99618.97;4930263;29;20047;-82
2021/05/21 10:03:33;;;;;;;9.05;1.92;;;;;;;19.70;47.69;99623.31;4912181;29;20313;-86
2021/05/21 10:05:58;;;;;;;5.05;1.45;;;;;;;19.71;47.31;99619.66;4911816;29;20028;-85
2021/05/21 10:08:24;;;;;;;4.60;1.13;;;;;;;19.71;46.88;99609.00;4910858;29;20032;-87
2021/05/21 10:10:50;;;;;;;7.10;1.38;;;;;;;19.71;47.25;99614.31;4916547;29;20023;-87
2021/05/21 10:13:15;;;;;;;8.82;1.92;;;;;;;19.73;46.94;99608.84;4914175;29;20035;-86
2021/05/21 10:15:41;;;;;;;4.55;1.20;;;;;;;19.72;46.79;99615.97;4913554;29;20645;-86
2021/05/21 10:18:09;;;;;;;4.32;1.20;;;;;;;19.75;47.00;99606.84;4929796;29;20035;-86
2021/05/21 10:20:34;;;;;;;9.63;1.20;;;;;;;19.75;46.88;99606.84;4914134;29;20031;-85
2021/05/21 10:23:01;;;;;;;3.85;0.95;;;;;;;19.75;46.65;99622.84;4913698;29;20112;-85
2021/05/21 10:25:29;;;;;;;6.13;1.30;;;;;;;19.76;46.24;99614.69;4930459;29;20495;-85
2021/05/21 10:27:56;;;;;;;7.93;1.50;;;;;;;19.76;46.41;99616.50;4925356;29;20035;-85
2021/05/21 10:30:25;;;;;;;3.75;1.60;;;;;;;19.76;46.47;99612.03;4926225;29;20111;-86
2021/05/21 10:33:21;;;;;;;7.70;1.83;;;;;;;19.76;45.91;99614.69;4910669;29;20044;-86
2021/05/21 10:35:47;;;;;;;7.13;1.40;;;;;;;19.75;45.88;99607.66;4911177;29;20492;-86
2021/05/21 10:38:21;;;;;;;4.50;0.90;;;;;;;19.77;46.55;99615.53;4928681;29;20054;-86
2021/05/21 10:41:13;;;;;;;5.18;1.30;;;;;;;19.77;45.88;99618.19;4930854;29;20078;-86
2021/05/21 10:43:52;;;;;;;4.57;1.95;;;;;;;19.75;46.14;99613.00;4928836;29;20035;-86
2021/05/21 10:46:19;;;;;;;5.22;0.93;;;;;;;19.77;45.96;99626.19;4930462;29;20042;-85
2021/05/21 10:49:00;;;;;;;5.13;1.55;;;;;;;19.74;46.00;99611.34;4929218;29;20039;-86
2021/05/21 10:51:54;;;;;;;2.78;1.08;;;;;;;19.77;45.94;99623.53;4929962;29;20020;-86
2021/05/21 10:54:34;;;;;;;3.38;1.20;;;;;;;19.76;45.92;99622.69;4930183;29;20439;-87
2021/05/21 10:57:26;;;;;;;4.70;1.15;;;;;;;19.78;46.04;99614.53;4583678;29;10000396;-86
2021/05/21 10:59:51;;;;;;;3.55;0.90;;;;;;;19.78;46.51;99618.03;4912303;29;20024;-83
2021/05/21 11:02:17;;;;;;;5.30;1.15;;;;;;;19.76;45.94;99620.03;4934272;29;20063;-84
2021/05/21 11:04:42;;;;;;;5.93;1.13;;;;;;;19.77;45.82;99612.88;4916226;29;20223;-84
2021/05/21 11:07:08;;;;;;;4.57;1.00;;;;;;;19.76;45.99;99614.69;4932120;29;20032;-83
2021/05/21 11:09:45;;;;;;;5.43;1.20;;;;;;;19.76;45.72;99617.38;4914855;29;20028;-85
2021/05/21 11:12:15;;;;;;;7.43;1.27;;;;;;;19.74;45.62;99622.00;4933950;29;20046;-86
2021/05/21 11:14:43;;;;;;;4.30;1.00;;;;;;;19.77;45.69;99612.88;4933183;29;20127;-86
2021/05/21 11:17:10;;;;;;;5.50;2.30;;;;;;;19.77;46.09;99613.69;4934028;29;20042;-87
2021/05/21 11:19:37;;;;;;;4.38;0.80;;;;;;;19.76;45.87;99614.69;4934327;29;20027;-84
2021/05/21 11:22:22;;;;;;;4.90;1.10;;;;;;;19.75;45.43;99618.34;4923239;29;20032;-84
2021/05/21 11:24:51;;;;;;;5.13;1.58;;;;;;;19.75;45.64;99623.66;4914580;29;20034;-81
2021/05/21 11:27:17;;;;;;;5.47;1.00;;;;;;;19.77;45.78;99619.03;4913810;29;20024;-80
2021/05/21 11:29:48;;;;;;;3.80;1.25;;;;;;;19.76;45.44;99620.03;4917134;29;20035;-80